• Join FlightAware (Why Join?)
  • Login
  • US Flag 
10:35PM EDT


 

Airport Tracker/Info


-or-


 

Live Flight TrackerFlight Track Log ✈ VH-BGZ ✈ 25-Apr-2013 ✈ YSBK / BWU - YSBK / BWU

Flight Track Log - Related Links

Times and Time Zones

All times are in EDT time to prevent confusion due to time zone crossing. See the VH-BGZ flight status page for this flight to view local times or setup timezone preferences in your user account.

Time Position Orientation Groundspeed Altitude Reporting Facility
EDT Latitude Longitude Course Direction KTS MPH feet Rate Location/Type
12:32AM -33.8979 150.9445 303° West 111 128 1,600  Level Aus ATC (RADAR)
12:33AM -33.8834 150.9174 303° West 109 125 2,500 780 Climbing Aus ATC (RADAR)
12:34AM -33.8631 150.8811 304° West 137 158 3,100 480 Climbing Aus ATC (RADAR)
12:34AM -33.8513 150.8544 298° West 145 167 3,300 720 Climbing Aus ATC (RADAR)
12:35AM -33.8672 150.8238 238° Southwest 127 146 4,200 840 Climbing Aus ATC (RADAR)
12:36AM -33.9081 150.8011 205° Southwest 130 150 5,100 480 Climbing Aus ATC (RADAR)
12:37AM -33.9257 150.7871 213° Southwest 146 168 5,100 -180 Level Aus ATC (RADAR)
12:37AM -33.9344 150.7781 221° Southwest 155 178 5,000 -360 Descending Aus ATC (RADAR)
12:38AM -33.9569 150.7595 214° Southwest 166 191 4,800 -420 Descending Aus ATC (RADAR)
12:39AM -33.9933 150.7284 215° Southwest 173 199 4,400 -480 Descending Aus ATC (RADAR)
12:39AM -34.0171 150.7092 214° Southwest 176 203 4,100 -360 Descending Aus ATC (RADAR)
12:40AM -34.0509 150.6843 211° Southwest 169 194 3,900 -240 Descending Aus ATC (RADAR)
12:40AM -34.0607 150.6775 210° Southwest 165 190 3,900 -60 Level Aus ATC (RADAR)
12:42AM -34.1166 150.6733 184° South 159 183 3,800  Descending Aus ATC (RADAR)
12:42AM -34.1140 150.6866 77° East 152 175 3,900 120 Climbing Aus ATC (RADAR)
12:43AM -34.0888 150.6893 North 172 198 3,900 -180 Level Aus ATC (RADAR)
12:44AM -34.0478 150.6907 North 157 181 3,700 -120 Descending Aus ATC (RADAR)
12:44AM -34.0260 150.6903 359° North 139 160 3,800 -240 Climbing Aus ATC (RADAR)
12:45AM -33.9933 150.6895 359° North 146 168 3,400 -480 Descending Aus ATC (RADAR)
12:45AM -33.9832 150.6879 352° North 148 170 3,300 -480 Descending Aus ATC (RADAR)
12:46AM -33.9324 150.6853 358° North 145 167 2,700 -420 Descending Aus ATC (RADAR)
12:47AM -33.9224 150.6640 300° West 127 146 2,600 -120 Descending Aus ATC (RADAR)
12:47AM -33.9271 150.6542 240° Southwest 125 144 2,600 -360 Level Aus ATC (RADAR)
12:48AM -33.9485 150.6521 185° South 137 158 2,300 -780 Descending Aus ATC (RADAR)
12:49AM -33.9819 150.6677 159° South 140 161 1,500 -600 Descending Aus ATC (RADAR)
12:49AM -34.0009 150.6793 153° Southeast 128 147 1,400 -120 Descending Aus ATC (RADAR)
12:50AM -34.0316 150.6897 164° South 125 144 1,400 360 Level Aus ATC (RADAR)
12:51AM -34.0630 150.6719 205° Southwest 122 140 2,200 780 Climbing Aus ATC (RADAR)
12:52AM -34.0669 150.6497 258° West 130 150 2,700 960 Climbing Aus ATC (RADAR)
12:54AM -34.0299 150.7295 64° Northeast -1,200 Descending Aus ATC (Calculated)
12:55AM -34.0036 150.7943 64° Northeast  Level Aus ATC (Calculated)
12:59AM -33.9244 150.9884 64° Northeast  Level Aus ATC (Calculated)